Latest Weather Observations for Murganella Airstrip

IDD60801

Issued at 7:31 pm CST Saturday 1 October 2016 (issued every 30 minutes, with the page automatically refreshed every 10 minutes)

About weather observations | Map of weather stations | Latest weather observations for NT | Other Formats
Station Details ID: 014309 Name: MURGANELLA AIRSTRIP Lat: -11.55 Lon: 132.93 Height: 9.5 m
Data from the previous 72 hours. | See also: Recent months at Murganella Airstrip
Date/Time
CST
Temp
°C
App
Temp
°C
Dew
Point
°C
Rel
Hum
%
Delta-T
°C
Wind Press
QNH
hPa
Press
MSL
hPa
Rain since
9am
mm
Dir  Spd
km/h
Gust
km/h
Spd
kts
Gust
kts
01/07:30pm 27.6 32.4 22.8 75 3.3 N 2 6 1 3 1009.7 1009.6 0.0
01/07:00pm 28.1 32.5 22.8 73 3.6 N 4 7 2 4 1009.3 1009.2 0.0
01/06:30pm 28.8 32.3 21.8 66 4.7 N 6 11 3 6 1009.0 1008.9 0.0
01/06:00pm 29.8 32.6 21.5 61 5.6 NNE 9 13 5 7 1008.7 1008.6 0.0
01/05:30pm 30.9 33.0 20.2 53 7.1 NNE 9 15 5 8 1008.5 1008.4 0.0
01/05:00pm 31.2 32.5 19.2 48 7.8 N 11 17 6 9 1008.2 1008.1 0.0
01/04:30pm 32.2 33.6 19.5 47 8.4 N 11 20 6 11 1008.1 1008.0 0.0
01/04:00pm 32.5 33.8 19.4 46 8.6 NE 11 17 6 9 1008.2 1008.1 0.0
01/03:30pm 33.0 34.4 19.5 45 8.9 NNE 11 20 6 11 1008.6 1008.5 0.0
01/03:00pm 32.6 34.2 19.1 44 8.8 NE 9 19 5 10 1009.2 1009.1 0.0
01/02:30pm 32.9 35.4 21.1 50 8.0 NNE 9 17 5 9 1009.3 1009.2 0.0
01/02:00pm 32.8 34.4 20.0 47 8.5 NNE 11 19 6 10 1009.5 1009.4 0.0
01/01:30pm 32.6 35.7 22.1 54 7.2 NNE 9 15 5 8 1009.9 1009.8 0.0
01/01:00pm 32.6 35.8 23.0 57 6.6 ENE 11 20 6 11 1010.3 1010.2 0.0
01/12:30pm 32.6 36.3 23.3 58 6.4 NNE 9 19 5 10 1010.7 1010.6 0.0
01/12:00pm 31.9 34.6 22.9 59 6.2 NE 13 24 7 13 1011.1 1011.0 0.0
01/11:30am 31.6 35.5 22.6 59 6.2 E 6 11 3 6 1011.3 1011.2 0.0
01/11:00am 32.5 36.5 22.0 54 7.1 E 4 9 2 5 1011.5 1011.4 0.0
01/10:30am 31.9 35.3 21.7 54 6.9 SE 6 9 3 5 1011.7 1011.6 0.0
01/10:00am 31.3 34.6 21.5 56 6.6 SE 6 9 3 5 1012.0 1011.9 0.0
01/09:30am 30.6 34.9 21.9 59 5.9 NW 2 6 1 3 1012.2 1012.1 0.0
01/09:00am 29.8 34.2 22.8 66 4.8 NNE 4 6 2 3 1012.3 1012.2 0.0
01/08:30am 29.2 34.7 23.4 71 4.0 CALM 0 0 0 0 1012.1 1012.0 0.0
01/08:00am 28.0 33.8 24.0 79 2.8 CALM 0 0 0 0 1011.7 1011.6 0.0
01/07:30am 25.1 30.3 22.8 87 1.6 CALM 0 0 0 0 1011.4 1011.3 0.0
01/07:00am 22.9 27.5 21.7 93 0.8 CALM 0 0 0 0 1010.8 1010.7 0.0
01/06:30am 22.6 27.0 21.4 93 0.8 CALM 0 0 0 0 1010.6 1010.5 0.0
01/06:00am 22.8 27.3 21.6 93 0.8 CALM 0 0 0 0 1010.2 1010.1 0.0
01/05:30am 23.0 27.5 21.6 92 0.9 CALM 0 0 0 0 1009.8 1009.7 0.0
01/05:00am 23.1 27.7 21.7 92 0.9 CALM 0 0 0 0 1009.5 1009.4 0.0
01/04:30am 23.2 27.9 22.0 93 0.8 CALM 0 0 0 0 1009.3 1009.2 0.0
01/04:00am 23.1 27.8 21.9 93 0.8 CALM 0 0 0 0 1009.2 1009.1 0.0
01/03:30am 23.2 27.8 21.8 92 0.9 CALM 0 0 0 0 1009.1 1009.0 0.0
01/03:00am 23.4 28.1 22.0 92 0.9 CALM 0 0 0 0 1009.0 1008.9 0.0
01/02:30am 23.4 28.1 22.0 92 0.9 CALM 0 0 0 0 1009.1 1009.0 0.0
01/02:00am 23.6 28.4 22.2 92 0.9 CALM 0 0 0 0 1009.2 1009.1 0.0
01/01:30am 24.1 29.0 22.4 90 1.1 CALM 0 0 0 0 1009.4 1009.3 0.0
01/01:00am 24.1 29.0 22.4 90 1.1 CALM 0 0 0 0 1009.4 1009.3 0.0
01/12:30am 24.3 29.4 22.6 90 1.1 CALM 0 0 0 0 1009.7 1009.6 0.0
01/12:00am 24.6 29.6 22.5 88 1.4 CALM 0 4 0 2 1009.9 1009.8 0.0
 
Date/Time
CST
Temp
°C
App
Temp
°C
Dew
Point
°C
Rel
Hum
%
Delta-T
°C
Wind Press
QNH
hPa
Press
MSL
hPa
Rain since
9am
mm
Dir  Spd
km/h
Gust
km/h
Spd
kts
Gust
kts
30/11:30pm 24.9 30.0 22.6 87 1.5 CALM 0 0 0 0 1009.9 1009.8 0.0
30/11:00pm 25.1 30.3 22.8 87 1.6 CALM 0 0 0 0 1009.7 1009.6 0.0
30/10:30pm 24.9 29.8 22.4 86 1.7 CALM 0 0 0 0 1009.6 1009.5 0.0
30/10:00pm 25.7 30.9 22.8 84 2.0 CALM 0 0 0 0 1009.5 1009.4 0.0
30/09:30pm 25.9 31.1 22.8 83 2.1 CALM 0 2 0 1 1009.3 1009.2 0.0
30/09:00pm 26.1 30.4 22.6 81 2.4 N 4 6 2 3 1009.2 1009.1 0.0
30/08:30pm 26.9 32.4 23.4 81 2.4 CALM 0 0 0 0 1009.3 1009.2 0.0
30/08:00pm 27.3 32.5 22.9 77 3.0 CALM 0 0 0 0 1009.0 1008.9 0.0
30/07:30pm 27.9 32.8 22.4 72 3.7 CALM 0 2 0 1 1008.5 1008.4 0.0
30/07:00pm 28.7 33.0 22.7 70 4.1 NNW 4 7 2 4 1007.9 1007.8 0.0
30/06:30pm 29.5 32.6 21.4 61 5.4 NNW 7 11 4 6 1007.4 1007.3 0.0
30/06:00pm 30.8 33.8 21.3 57 6.4 NW 7 15 4 8 1007.0 1006.9 0.0
30/05:30pm 31.6 34.6 21.2 54 7.0 NNW 7 13 4 7 1006.6 1006.5 0.0
30/05:00pm 32.3 35.6 21.8 54 7.1 NNW 7 13 4 7 1006.6 1006.5 0.0
30/04:30pm 32.6 35.4 21.5 52 7.5 N 9 15 5 8 1006.5 1006.4 0.0
30/04:00pm 32.9 35.3 20.8 49 8.1 N 9 17 5 9 1006.8 1006.7 0.0
30/03:30pm 32.7 35.0 20.6 49 8.1 N 9 19 5 10 1006.9 1006.8 0.0
30/03:00pm 32.8 35.3 21.0 50 7.9 NNE 9 17 5 9 1007.3 1007.2 0.0
30/02:30pm 32.3 34.7 20.9 51 7.7 NNE 9 19 5 10 1007.3 1007.2 0.0
30/02:00pm 33.3 35.8 22.4 52 7.5 NNE 13 20 7 11 1007.8 1007.7 0.0
30/01:30pm 32.4 34.8 22.2 55 7.0 N 13 20 7 11 1008.2 1008.1 0.0
30/01:00pm 33.0 36.6 23.0 55 6.9 NNE 9 17 5 9 1008.8 1008.7 0.0
30/12:30pm 32.9 36.7 22.7 55 7.0 NE 7 15 4 8 1009.3 1009.2 0.0
30/12:00pm 32.6 36.2 22.4 55 7.0 N 7 13 4 7 1009.8 1009.7 0.0
30/11:30am 33.2 36.9 22.3 52 7.5 NE 6 11 3 6 1010.1 1010.0 0.0
30/11:00am 32.5 35.6 21.0 50 7.7 E 6 15 3 8 1010.6 1010.5 0.0
30/10:30am 31.9 35.5 22.0 55 6.7 NE 6 9 3 5 1010.9 1010.8 0.0
30/10:00am 30.4 35.1 22.0 60 5.7 CALM 0 2 0 1 1011.0 1010.9 0.0
30/09:30am 30.1 34.9 22.8 65 5.0 SE 2 6 1 3 1010.8 1010.7 0.0
30/09:00am 29.6 34.5 23.1 68 4.5 ESE 2 9 1 5 1010.8 1010.7 0.0
30/08:30am 28.5 32.9 23.4 74 3.5 SSE 6 7 3 4 1010.6 1010.5 0.0
30/08:00am 27.5 32.8 24.4 83 2.1 SE 4 6 2 3 1010.2 1010.1 0.0
30/07:30am 25.8 31.6 24.0 90 1.2 CALM 0 2 0 1 1010.0 1009.9 0.0
30/07:00am 23.9 29.1 22.9 94 0.7 CALM 0 0 0 0 1009.8 1009.7 0.0
30/06:30am 23.6 28.7 22.6 94 0.7 CALM 0 0 0 0 1009.5 1009.4 0.0
30/06:00am 23.5 28.1 22.5 94 0.7 SSE 2 4 1 2 1009.4 1009.3 0.0
30/05:30am 23.6 27.9 22.6 94 0.7 SSE 4 6 2 3 1008.8 1008.7 0.0
30/05:00am 23.4 28.2 22.2 93 0.8 CALM 0 0 0 0 1008.4 1008.3 0.0
30/04:30am 23.8 29.0 22.8 94 0.7 CALM 0 2 0 1 1008.4 1008.3 0.0
30/04:00am 24.0 29.2 22.8 93 0.8 CALM 0 0 0 0 1008.0 1007.9 0.0
30/03:30am 24.0 29.2 22.8 93 0.8 CALM 0 0 0 0 1008.1 1008.0 0.0
30/03:00am 24.1 29.2 22.7 92 0.9 CALM 0 0 0 0 1008.4 1008.3 0.0
30/02:30am 24.5 29.8 23.1 92 0.9 CALM 0 0 0 0 1008.6 1008.5 0.0
30/02:00am 24.8 30.2 23.2 91 1.1 CALM 0 0 0 0 1008.9 1008.8 0.0
30/01:30am 25.0 30.5 23.4 91 1.1 CALM 0 0 0 0 1009.1 1009.0 0.0
30/01:00am 25.0 30.5 23.4 91 1.1 CALM 0 0 0 0 1009.3 1009.2 0.0
30/12:30am 24.9 30.2 23.1 90 1.2 CALM 0 0 0 0 1009.5 1009.4 0.0
30/12:00am 25.3 30.8 23.4 89 1.3 CALM 0 0 0 0 1009.9 1009.8 0.0
 
Date/Time
CST
Temp
°C
App
Temp
°C
Dew
Point
°C
Rel
Hum
%
Delta-T
°C
Wind Press
QNH
hPa
Press
MSL
hPa
Rain since
9am
mm
Dir  Spd
km/h
Gust
km/h
Spd
kts
Gust
kts
29/11:30pm 25.5 30.6 23.4 88 1.4 N 2 2 1 1 1009.9 1009.8 0.0
29/11:00pm 25.9 31.4 23.4 86 1.7 CALM 0 0 0 0 1010.1 1010.0 0.0
29/10:30pm 26.3 31.9 23.6 85 1.8 CALM 0 0 0 0 1010.2 1010.1 0.0
29/10:00pm 26.1 30.8 23.4 85 1.8 N 4 6 2 3 1010.0 1009.9 0.0
29/09:30pm 26.1 31.6 23.4 85 1.8 CALM 0 6 0 3 1009.8 1009.7 0.0
29/09:00pm 26.3 31.8 23.4 84 2.0 CALM 0 0 0 0 1009.4 1009.3 0.0
29/08:30pm 26.8 32.0 23.5 82 2.3 N 2 4 1 2 1009.3 1009.2 0.0
29/08:00pm 27.0 31.8 23.5 81 2.4 N 4 6 2 3 1008.8 1008.7 0.0
29/07:30pm 27.3 32.0 23.3 79 2.7 NNE 4 6 2 3 1008.2 1008.1 0.0
29/07:00pm 27.6 31.8 23.2 77 3.0 N 6 7 3 4 1007.6 1007.5 0.0
29/06:30pm 28.2 32.4 23.1 74 3.5 N 6 11 3 6 1007.5 1007.4 0.0
29/06:00pm 28.9 32.9 23.1 71 4.0 N 7 15 4 8 1007.1 1007.0 0.0
29/05:30pm 29.8 33.3 22.8 66 4.8 N 9 13 5 7 1007.0 1006.9 0.0
29/05:00pm 30.5 33.7 22.4 62 5.5 N 9 15 5 8 1006.8 1006.7 0.0
29/04:30pm 30.7 34.7 23.1 64 5.2 NNW 7 9 4 5 1006.6 1006.5 0.0
29/04:00pm 30.5 34.6 23.2 65 5.0 NNE 7 9 4 5 1006.9 1006.8 0.0
29/03:30pm 29.9 34.1 23.1 67 4.7 NNW 6 9 3 5 1006.9 1006.8 0.0
29/03:00pm 27.9 29.8 21.4 67 4.3 SW 13 20 7 11 1007.5 1007.4 0.0
29/02:30pm 31.4 33.9 23.2 61 5.7 NNE 15 24 8 13 1007.1 1007.0 0.0
29/02:00pm 32.5 36.3 23.4 58 6.3 NNE 9 17 5 9 1007.6 1007.5 0.0
29/01:30pm 32.3 36.5 23.5 59 6.1 NNE 7 15 4 8 1008.1 1008.0 0.0
29/01:00pm 31.9 35.3 23.4 60 5.9 NW 11 17 6 9 1008.6 1008.5 0.0
29/12:30pm 32.4 36.3 21.9 54 7.1 N 4 7 2 4 1008.8 1008.7 0.0
29/12:00pm 32.8 36.9 22.3 54 7.2 SW 4 13 2 7 1009.1 1009.0 0.0
29/11:30am 32.5 37.0 22.9 57 6.6 ENE 4 9 2 5 1009.4 1009.3 0.0
29/11:00am 32.0 37.1 23.3 60 6.0 SE 2 6 1 3 1009.9 1009.8 0.0
29/10:30am 30.5 35.3 22.9 64 5.2 S 2 6 1 3 1010.2 1010.1 0.0
29/10:00am 30.0 34.3 22.7 65 5.0 ENE 4 7 2 4 1010.3 1010.2 0.0
29/09:30am 29.3 33.6 23.3 70 4.1 NNE 6 9 3 5 1010.2 1010.1 0.0
29/09:00am 28.1 33.2 24.1 79 2.8 N 4 6 2 3 1010.2 1010.1 0.0
29/08:30am 26.4 32.3 24.1 87 1.6 CALM 0 0 0 0 1010.3 1010.2 0.0
29/08:00am 25.0 30.5 23.4 91 1.1 CALM 0 0 0 0 1009.8 1009.7 0.0
29/07:30am 23.8 29.0 22.8 94 0.7 CALM 0 0 0 0 1009.6 1009.5 0.0
29/07:00am 23.0 27.7 22.0 94 0.7 CALM 0 0 0 0 1009.2 1009.1 0.0
29/06:30am 22.7 27.3 21.7 94 0.7 CALM 0 0 0 0 1008.9 1008.8 0.0
29/06:00am 22.5 26.9 21.3 93 0.8 CALM 0 0 0 0 1008.7 1008.6 0.0
29/05:30am 22.5 27.0 21.5 94 0.7 CALM 0 0 0 0 1008.5 1008.4 0.0
29/05:00am 22.7 27.3 21.7 94 0.7 CALM 0 0 0 0 1008.4 1008.3 0.0
29/04:30am 22.7 27.3 21.7 94 0.7 CALM 0 0 0 0 1008.2 1008.1 0.0
29/04:00am 22.9 27.6 21.9 94 0.7 CALM 0 0 0 0 1008.2 1008.1 0.0
29/03:30am 22.6 27.0 21.4 93 0.8 CALM 0 0 0 0 1008.3 1008.2 0.0
29/03:00am 22.8 27.3 21.6 93 0.8 CALM 0 0 0 0 1008.4 1008.3 0.0
29/02:30am 23.0 27.6 21.8 93 0.8 CALM 0 0 0 0 1008.7 1008.6 0.0
29/02:00am 23.1 27.8 21.9 93 0.8 CALM 0 0 0 0 1009.1 1009.0 0.0
29/01:30am 23.6 28.5 22.4 93 0.8 CALM 0 0 0 0 1009.5 1009.4 0.0
29/01:00am 23.4 28.1 22.0 92 0.9 CALM 0 0 0 0 1009.6 1009.5 0.0
29/12:30am 23.5 28.3 22.1 92 0.9 CALM 0 0 0 0 1009.9 1009.8 0.0
29/12:00am 24.0 28.9 22.4 91 1.1 CALM 0 0 0 0 1010.2 1010.1 0.0
 
Date/Time
CST
Temp
°C
App
Temp
°C
Dew
Point
°C
Rel
Hum
%
Delta-T
°C
Wind Press
QNH
hPa
Press
MSL
hPa
Rain since
9am
mm
Dir  Spd
km/h
Gust
km/h
Spd
kts
Gust
kts
28/11:30pm 24.0 28.9 22.3 90 1.1 CALM 0 0 0 0 1010.3 1010.2 0.0
28/11:00pm 24.8 30.0 22.9 89 1.3 CALM 0 0 0 0 1010.4 1010.3 0.0
28/10:30pm 24.6 29.6 22.5 88 1.4 CALM 0 0 0 0 1010.3 1010.2 0.0
28/10:00pm 25.4 30.7 23.1 87 1.6 CALM 0 0 0 0 1010.1 1010.0 0.0
28/09:30pm 25.2 30.4 22.9 87 1.6 CALM 0 0 0 0 1009.7 1009.6 0.0
28/09:00pm 26.0 31.3 23.1 84 2.0 CALM 0 0 0 0 1009.6 1009.5 0.0
28/08:30pm 26.5 32.0 23.4 83 2.1 CALM 0 0 0 0 1009.4 1009.3 0.0
28/08:00pm 26.9 32.1 22.9 79 2.7 CALM 0 0 0 0 1009.1 1009.0 0.0

Other Formats:

Comma delimited format used in spreadsheet applications
http://www.bom.gov.au/fwo/IDD60801/IDD60801.94109.axf

JavaScript Object Notation format (JSON) in row-major order
http://www.bom.gov.au/fwo/IDD60801/IDD60801.94109.json